Nearby METAR Reports

 

KPBI - West Palm Beach, Florida, USA
Distance from station: NNE 9mi, 14km
Updated: Mon, 24-Feb-2020 11:53am EST
Mostly cloudy
Mostly cloudy
 Wind from SSE
Wind: SSE 17 mph , 28 km/h
Temperature: 79°F , 26°C
Dew Point: 57°F , 14°C
Humidity: 48%
Barometer: 30.10 inHg , 1019.3 hPa
Clouds: Mostly cloudy
Visibility: 10 miles , 16 km
Cloud details: Partly cloudy 4100 ft
Partly cloudy 4900 ft
Mostly cloudy 6000 ft
2020/02/24 16:53 KPBI 241653Z 15015KT 10SM SCT041 SCT049 BKN060 26/14 A3010 RMK AO2 SLP193 T02560139
KBCT - Boca Raton, Florida, USA
Distance from station: SSE 13mi, 21km
Updated: Mon, 24-Feb-2020 11:47am EST
Partly cloudy
Partly cloudy
 Wind from SE
Wind: SE 16 mph , 26 km/h, Gust: 21 mph , 33 km/h
Temperature: 77°F , 25°C
Dew Point: 57°F , 14°C
Humidity: 51%
Barometer: 30.10 inHg , 1019.3 hPa
Clouds: Partly cloudy
Visibility: 10 miles , 16 km
Cloud details: Partly cloudy 4000 ft
2020/02/24 16:47 KBCT 241647Z 14014G18KT 110V190 10SM SCT040 25/14 A3010
 
KPMP - Pompano Beach, Florida, USA
Distance from station: S 22mi, 36km
Updated: Mon, 24-Feb-2020 11:53am EST
Few Clouds
Few Clouds
 Wind from SE
Wind: SE 18 mph , 30 km/h, Gust: 24 mph , 39 km/h
Temperature: 79°F , 26°C
Dew Point: 59°F , 15°C
Humidity: 51%
Barometer: 30.09 inHg , 1019 hPa
Clouds: Few Clouds
Visibility: 10 miles , 16 km
Cloud details: Few Clouds 3700 ft
Few Clouds 4600 ft
2020/02/24 16:53 KPMP 241653Z 14016G21KT 10SM FEW037 FEW046 26/15 A3009 RMK AO2 SLP191 T02610150
KFXE - Ft Lauderd/Exec, Florida, USA
Distance from station: S 25mi, 41km
Updated: Mon, 24-Feb-2020 11:53am EST
Mostly cloudy
Mostly cloudy
 Wind from ESE
Wind: ESE 14 mph , 22 km/h, Gust: 23 mph , 37 km/h
Temperature: 77°F , 25°C
Dew Point: 59°F , 15°C
Humidity: 54%
Barometer: 30.09 inHg , 1019 hPa
Clouds: Mostly cloudy
Visibility: 10 miles , 16 km
Cloud details: Partly cloudy 4200 ft
Mostly cloudy 5000 ft
Mostly cloudy 5500 ft
2020/02/24 16:53 KFXE 241653Z 12012G20KT 10SM SCT042 BKN050 BKN055 25/15 A3009 RMK AO2 SLP191 T02500150
 
KFLL - Ft Lauderd/Holly, Florida, USA
Distance from station: S 35mi, 56km
Updated: Mon, 24-Feb-2020 11:53am EST
Mostly cloudy
Mostly cloudy
 Wind from SE
Wind: SE 17 mph , 28 km/h
Temperature: 75°F , 24°C
Dew Point: 57°F , 14°C
Humidity: 54%
Barometer: 30.09 inHg , 1019 hPa
Clouds: Mostly cloudy
Visibility: 10 miles , 16 km
Cloud details: Few Clouds 3600 ft
Partly cloudy 4700 ft
Mostly cloudy 5500 ft
2020/02/24 16:53 KFLL 241653Z 13015KT 10SM FEW036 SCT047 BKN055 24/14 A3009 RMK AO2 SLP187 T02440144
KHWO - Hollywood, Florida, USA
Distance from station: S 39mi, 64km
Updated: Mon, 24-Feb-2020 11:53am EST
Mostly cloudy
Mostly cloudy
 Wind from SE
Wind: SE 20 mph , 31 km/h, Gust: 26 mph , 43 km/h
Temperature: 79°F , 26°C
Dew Point: 57°F , 14°C
Humidity: 48%
Barometer: 30.10 inHg , 1019.3 hPa
Clouds: Mostly cloudy
Visibility: 10 miles , 16 km
Cloud details: Partly cloudy 4000 ft
Mostly cloudy 5000 ft
Mostly cloudy 6000 ft
2020/02/24 16:53 KHWO 241653Z 13017G23KT 10SM SCT040 BKN050 BKN060 26/14 A3010 RMK AO2 SLP193 T02560144
 
KSUA - Stuart/Witham, Florida, USA
Distance from station: N 43mi, 69km
Updated: Mon, 24-Feb-2020 11:47am EST
Partly cloudy
Partly cloudy
 Wind from SE
Wind: SE 12 mph , 19 km/h, Gust: 21 mph , 33 km/h
Temperature: 75°F , 24°C
Dew Point: 55°F , 13°C
Humidity: 50%
Barometer: 30.12 inHg , 1020 hPa
Clouds: Partly cloudy
Visibility: 7 miles , 11 km
Cloud details: Partly cloudy 4000 ft
2020/02/24 16:47 KSUA 241647Z 13010G18KT 7SM SCT040 24/13 A3012
KOPF - Miami/Opa Locka, Florida, USA
Distance from station: S 46mi, 73km
Updated: Mon, 24-Feb-2020 11:53am EST
Mostly cloudy
Mostly cloudy
 Wind from SSE
Wind: SSE 17 mph , 28 km/h, Gust: 25 mph , 41 km/h
Temperature: 79°F , 26°C
Dew Point: 59°F , 15°C
Humidity: 51%
Barometer: 30.10 inHg , 1019.3 hPa
Clouds: Mostly cloudy
Visibility: 10 miles , 16 km
Cloud details: Partly cloudy 4200 ft
Mostly cloudy 5500 ft
2020/02/24 16:53 KOPF 241653Z 15015G22KT 10SM SCT042 BKN055 26/15 A3010 RMK AO2 SLP192 T02560150
 
KMIA - Miami, Florida, USA
Distance from station: S 54mi, 86km
Updated: Mon, 24-Feb-2020 11:53am EST
Mostly cloudy
Mostly cloudy
 Wind from SE
Wind: SE 17 mph , 28 km/h, Gust: 30 mph , 48 km/h
Temperature: 79°F , 26°C
Dew Point: 55°F , 13°C
Humidity: 45%
Barometer: 30.10 inHg , 1019.3 hPa
Clouds: Mostly cloudy
Visibility: 10 miles , 16 km
Cloud details: Partly cloudy 4200 ft
Mostly cloudy 5000 ft
Mostly cloudy 25000 ft
2020/02/24 16:53 KMIA 241653Z 14015G26KT 10SM SCT042 BKN050 BKN250 26/13 A3010 RMK AO2 PK WND 15026/1653 SLP192 T02610133
KOBE - Okeechobee Cty, Florida, USA
Distance from station: NW 64mi, 104km
Updated: Mon, 24-Feb-2020 12:35pm EST
Clear
Clear
 Wind from SSE
Wind: SSE 12 mph , 19 km/h, Gust: 16 mph , 26 km/h
Temperature: 77°F , 25°C
Dew Point: 55°F , 13°C
Humidity: 47%
Barometer: 30.06 inHg , 1017.9 hPa
Clouds: Clear
Visibility: 10 miles , 16 km
2020/02/24 17:35 KOBE 241735Z AUTO 15010G14KT 115V175 10SM CLR 25/13 A3006 RMK AO2
 
KFPR - Fort Pierce, Florida, USA
Distance from station: NNW 66mi, 106km
Updated: Mon, 24-Feb-2020 11:53am EST
Clear
Clear
 Wind from SE
Wind: SE 21 mph , 33 km/h, Gust: 26 mph , 43 km/h
Temperature: 77°F , 25°C
Dew Point: 55°F , 13°C
Humidity: 47%
Barometer: 30.09 inHg , 1019 hPa
Clouds: Clear
Visibility: 10 miles , 16 km
2020/02/24 16:53 KFPR 241653Z 13018G23KT 10SM CLR 25/13 A3009 RMK AO2 SLP189 T02500133
KTMB - Miami/Tamiami, Florida, USA
Distance from station: SSW 66mi, 106km
Updated: Mon, 24-Feb-2020 11:53am EST
Partly cloudy
Partly cloudy
 Wind from SSE
Wind: SSE 15 mph , 24 km/h, Gust: 24 mph , 39 km/h
Temperature: 79°F , 26°C
Dew Point: 57°F , 14°C
Humidity: 48%
Barometer: 30.09 inHg , 1019 hPa
Clouds: Partly cloudy
Visibility: 10 miles , 16 km
Cloud details: Partly cloudy 5000 ft
2020/02/24 16:53 KTMB 241653Z 15013G21KT 10SM SCT050 26/14 A3009 RMK AO2 SLP189 T02560139
 
KVRB - Vero Beach, Florida, USA
Distance from station: NNW 76mi, 123km
Updated: Mon, 24-Feb-2020 11:53am EST
Few Clouds
Few Clouds
 Wind from ESE
Wind: ESE 16 mph , 26 km/h
Temperature: 75°F , 24°C
Dew Point: 55°F , 13°C
Humidity: 50%
Barometer: 30.10 inHg , 1019.3 hPa
Clouds: Few Clouds
Visibility: 10 miles , 16 km
Cloud details: Few Clouds 4800 ft
2020/02/24 16:53 KVRB 241653Z 12014KT 10SM FEW048 24/13 A3010 RMK AO2 SLP193 T02440128
KHST - Homestead Afb, Florida, USA
Distance from station: S 77mi, 124km
Updated: Mon, 24-Feb-2020 11:56am EST
Partly cloudy
Partly cloudy
 Wind from ESE
Wind: ESE 13 mph , 20 km/h, Gust: 20 mph , 31 km/h
Temperature: 77°F , 25°C
Dew Point: 57°F , 14°C
Humidity: 51%
Barometer: 30.08 inHg , 1018.6 hPa
Clouds: Partly cloudy
Visibility: 10 miles , 16 km
Cloud details: Partly cloudy 4500 ft
2020/02/24 16:56 KHST 241656Z AUTO 12011G17KT 10SM SCT045 25/14 A3008 RMK AO2 SLP189 T02520137
 
KIMM - Immokalee, Florida, USA
Distance from station: W 77mi, 124km
Updated: Mon, 24-Feb-2020 12:35pm EST
Partly cloudy
Partly cloudy
 Wind from SSE
Wind: SSE 10 mph , 17 km/h, Gust: 20 mph , 31 km/h
Temperature: 81°F , 27°C
Heat Index: 81°F , 27°C
Dew Point: 57°F , 14°C
Humidity: 45%
Barometer: 30.05 inHg , 1017.6 hPa
Clouds: Partly cloudy
Visibility: 10 miles , 16 km
Cloud details: Partly cloudy 5000 ft
2020/02/24 17:35 KIMM 241735Z AUTO 15009G17KT 110V180 10SM SCT050 27/14 A3005 RMK AO2
MYGF - Freeport Intl A, Bahamas
Distance from station: E 90mi, 145km
Updated: Mon, 24-Feb-2020 12:00pm EST
Mostly cloudy
Mostly cloudy
 Wind from SE
Wind: SE 12 mph , 19 km/h
Temperature: 75°F , 24°C
Dew Point: 61°F , 16°C
Humidity: 61%
Barometer: 30.12 inHg , 1020 hPa
Clouds: Mostly cloudy
Visibility: 6 miles , 10 km
Cloud details: Partly cloudy 2500 ft
Mostly cloudy 25000 ft
2020/02/24 17:00 MYGF 241700Z 13010KT 9999 SCT025 BKN250 24/16 A3012
 
KSEF - Sebring, Florida, USA
Distance from station: NW 95mi, 153km
Updated: Mon, 24-Feb-2020 12:35pm EST
Clear
Clear
 Wind from SSE
Wind: SSE 14 mph , 22 km/h
Temperature: 77°F , 25°C
Dew Point: 55°F , 13°C
Humidity: 47%
Barometer: 30.07 inHg , 1018.3 hPa
Clouds: Clear
Visibility: 10 miles , 16 km
2020/02/24 17:35 KSEF 241735Z AUTO 16012KT 10SM CLR 25/13 A3007 RMK AO2 T02540129
KRSW - Fort Myers, Florida, USA
Distance from station: W 98mi, 158km
Updated: Mon, 24-Feb-2020 11:53am EST
Few Clouds
Few Clouds
 Wind from S
Wind: S 14 mph , 22 km/h, Gust: 18 mph , 30 km/h
Temperature: 77°F , 25°C
Dew Point: 57°F , 14°C
Humidity: 51%
Barometer: 30.07 inHg , 1018.3 hPa
Clouds: Few Clouds
Visibility: 10 miles , 16 km
Cloud details: Few Clouds 4300 ft
2020/02/24 16:53 KRSW 241653Z 18012G16KT 10SM FEW043 25/14 A3007 RMK AO2 SLP180 T02500144